createdAt,value
2023-05-08T00:00:20.323Z,41.76
2023-05-08T00:01:24.562Z,41.48
2023-05-08T00:02:28.479Z,41.62
2023-05-08T00:03:32.577Z,41.55
2023-05-08T00:04:36.476Z,41.80
2023-05-08T00:05:41.925Z,41.71
2023-05-08T00:06:45.208Z,41.91
2023-05-08T00:07:52.279Z,41.84
2023-05-08T00:08:57.706Z,41.96
2023-05-08T00:10:01.786Z,41.84
2023-05-08T00:11:05.501Z,41.89
2023-05-08T00:12:08.678Z,42.22
2023-05-08T00:13:11.387Z,42.36
2023-05-08T00:14:13.929Z,42.04
2023-05-08T00:15:17.209Z,41.85
2023-05-08T00:16:19.504Z,41.97
2023-05-08T00:17:22.999Z,42.19
2023-05-08T00:18:27.214Z,42.00
2023-05-08T00:19:30.645Z,41.82
2023-05-08T00:20:35.385Z,41.69
2023-05-08T00:21:39.466Z,41.83
2023-05-08T00:22:45.311Z,41.76
2023-05-08T00:23:49.127Z,41.95
2023-05-08T00:24:53.714Z,41.57
2023-05-08T00:25:57.301Z,41.52
2023-05-08T00:27:00.802Z,41.77
2023-05-08T00:28:05.044Z,41.64
2023-05-08T00:29:08.580Z,41.71
2023-05-08T00:30:12.700Z,41.70
2023-05-08T00:31:17.436Z,41.66
2023-05-08T00:32:19.848Z,41.92
2023-05-08T00:33:23.299Z,41.62
2023-05-08T00:34:27.313Z,41.53
2023-05-08T00:35:30.091Z,41.68
2023-05-08T00:36:34.117Z,41.32
2023-05-08T00:37:40.854Z,41.31
2023-05-08T00:38:44.260Z,41.49
2023-05-08T00:39:48.186Z,41.49
2023-05-08T00:40:51.582Z,41.36
2023-05-08T00:41:56.233Z,41.54
2023-05-08T00:43:00.671Z,41.31
2023-05-08T00:44:03.990Z,41.20
2023-05-08T00:45:10.074Z,41.15
2023-05-08T00:46:14.746Z,40.95
2023-05-08T00:47:22.985Z,41.02
2023-05-08T00:48:29.729Z,41.37
2023-05-08T00:49:36.548Z,41.17
2023-05-08T00:50:40.570Z,41.04
2023-05-08T00:51:45.119Z,41.22
2023-05-08T00:52:48.513Z,41.16
2023-05-08T00:53:52.222Z,41.12
2023-05-08T00:54:55.117Z,40.76
2023-05-08T00:56:01.492Z,41.06
2023-05-08T00:57:07.261Z,41.07
2023-05-08T00:58:11.049Z,40.87
2023-05-08T00:59:15.303Z,40.93
2023-05-08T01:00:18.486Z,41.04
2023-05-08T01:01:23.381Z,40.86
2023-05-08T01:02:26.983Z,41.16
2023-05-08T01:03:31.621Z,40.79
2023-05-08T01:04:35.794Z,40.80
2023-05-08T01:05:38.583Z,40.52
2023-05-08T01:06:42.259Z,40.75
2023-05-08T01:07:46.041Z,40.98
2023-05-08T01:08:49.453Z,41.26
2023-05-08T01:09:53.226Z,40.73
2023-05-08T01:11:01.067Z,40.91
2023-05-08T01:12:10.850Z,40.79
2023-05-08T01:13:22.394Z,40.63
2023-05-08T01:14:27.858Z,40.90
2023-05-08T01:15:32.952Z,40.83
2023-05-08T01:16:39.353Z,40.76
2023-05-08T01:17:44.953Z,40.79
2023-05-08T01:18:57.976Z,40.82
2023-05-08T01:20:12.211Z,41.13
2023-05-08T01:21:21.696Z,41.21
2023-05-08T01:22:27.079Z,41.20
2023-05-08T01:23:37.061Z,41.03
2023-05-08T01:24:48.112Z,41.10
2023-05-08T01:26:05.163Z,41.22
2023-05-08T01:27:13.157Z,41.13
2023-05-08T01:28:35.047Z,41.34
2023-05-08T01:30:00.321Z,41.37
2023-05-08T01:31:05.783Z,41.34
2023-05-08T01:32:16.895Z,41.23
2023-05-08T01:33:28.145Z,41.28
2023-05-08T01:34:32.368Z,41.22
2023-05-08T01:35:53.530Z,41.65
2023-05-08T01:37:00.275Z,41.24
2023-05-08T01:38:08.265Z,41.42
2023-05-08T01:39:31.004Z,41.46
2023-05-08T01:40:35.237Z,41.55
2023-05-08T01:41:39.674Z,41.62
2023-05-08T01:42:45.967Z,41.75
2023-05-08T01:43:51.282Z,41.53
2023-05-08T01:45:03.138Z,41.60
2023-05-08T01:46:10.719Z,41.30
2023-05-08T01:47:16.465Z,41.35
2023-05-08T01:48:33.808Z,41.58
2023-05-08T01:49:49.287Z,41.67
2023-05-08T01:50:57.891Z,41.94
2023-05-08T01:52:04.178Z,41.92
2023-05-08T01:53:10.400Z,41.98
2023-05-08T01:54:18.145Z,42.19
2023-05-08T01:55:30.675Z,42.14
2023-05-08T01:56:35.320Z,42.28
2023-05-08T01:57:42.385Z,42.25
2023-05-08T01:58:48.424Z,42.41
2023-05-08T01:59:53.664Z,42.51
2023-05-08T02:00:58.176Z,42.52
2023-05-08T02:02:03.187Z,42.65
2023-05-08T02:03:07.478Z,42.74
2023-05-08T02:04:12.309Z,42.68
2023-05-08T02:06:33.068Z,42.54
2023-05-08T02:07:40.027Z,42.65
2023-05-08T02:08:45.517Z,42.81
2023-05-08T02:09:49.149Z,42.81
2023-05-08T02:10:51.803Z,42.31
2023-05-08T02:11:57.518Z,42.50
2023-05-08T02:13:03.020Z,42.67
2023-05-08T02:14:10.699Z,42.44
2023-05-08T02:15:14.705Z,42.64
2023-05-08T02:16:22.824Z,42.76
2023-05-08T02:17:26.539Z,42.75
2023-05-08T02:18:33.759Z,42.64
2023-05-08T02:19:38.008Z,42.48
2023-05-08T02:20:42.357Z,42.58
2023-05-08T02:21:47.330Z,42.40
2023-05-08T02:22:51.478Z,42.83
2023-05-08T02:23:58.526Z,42.46
2023-05-08T02:25:02.019Z,42.39
2023-05-08T02:26:05.837Z,42.48
2023-05-08T02:27:13.517Z,42.80
2023-05-08T02:28:18.269Z,42.55
2023-05-08T02:29:23.253Z,42.27
2023-05-08T02:30:27.278Z,42.24
2023-05-08T02:31:30.812Z,42.13
2023-05-08T02:32:35.860Z,42.18
2023-05-08T02:33:40.612Z,41.97
2023-05-08T02:34:54.870Z,42.17
2023-05-08T02:35:51.586Z,42.51
2023-05-08T02:36:55.450Z,42.31
2023-05-08T02:37:59.439Z,41.74
2023-05-08T02:39:04.921Z,41.92
2023-05-08T02:40:10.130Z,41.93
2023-05-08T02:41:15.880Z,41.98
2023-05-08T02:42:19.809Z,41.86
2023-05-08T02:43:24.685Z,42.16
2023-05-08T02:44:28.405Z,42.07
2023-05-08T02:45:36.603Z,41.93
2023-05-08T02:47:00.474Z,41.87
2023-05-08T02:48:11.485Z,41.87
2023-05-08T02:49:36.826Z,42.14
2023-05-08T02:50:57.501Z,41.88
2023-05-08T02:52:01.812Z,42.16
2023-05-08T02:53:07.725Z,41.75
2023-05-08T02:54:12.874Z,41.81
2023-05-08T02:55:23.947Z,41.94
2023-05-08T02:56:31.711Z,42.16
2023-05-08T02:57:56.109Z,42.27
2023-05-08T02:59:04.941Z,42.26
2023-05-08T03:00:19.506Z,42.35
2023-05-08T03:01:27.820Z,42.16
2023-05-08T03:02:40.487Z,42.46
2023-05-08T03:03:45.185Z,42.32
2023-05-08T03:04:50.751Z,42.25
2023-05-08T03:05:58.405Z,42.44
2023-05-08T03:07:03.820Z,42.25
2023-05-08T03:08:12.138Z,42.33
2023-05-08T03:09:17.932Z,42.22
2023-05-08T03:10:22.908Z,42.34
2023-05-08T03:11:28.194Z,42.36
2023-05-08T03:12:33.573Z,42.41
2023-05-08T03:13:39.060Z,42.68
2023-05-08T03:14:47.516Z,42.68
2023-05-08T03:15:58.957Z,42.52
2023-05-08T03:17:05.035Z,42.71
2023-05-08T03:18:09.580Z,42.22
2023-05-08T03:19:20.868Z,42.22
2023-05-08T03:20:27.601Z,42.26
2023-05-08T03:21:32.530Z,42.04
2023-05-08T03:22:38.590Z,42.27
2023-05-08T03:23:43.310Z,42.12
2023-05-08T03:24:47.735Z,42.31
2023-05-08T03:25:52.382Z,42.20
2023-05-08T03:26:57.782Z,42.17
2023-05-08T03:28:02.703Z,42.33
2023-05-08T03:29:08.135Z,41.94
2023-05-08T03:30:12.823Z,41.97
2023-05-08T03:31:18.745Z,42.09
2023-05-08T03:32:21.702Z,41.82
2023-05-08T03:33:28.286Z,41.83
2023-05-08T03:34:32.986Z,42.17
2023-05-08T03:35:40.878Z,41.62
2023-05-08T03:36:46.663Z,41.75
2023-05-08T03:37:51.849Z,41.48
2023-05-08T03:38:58.720Z,41.59
2023-05-08T03:40:02.504Z,41.42
2023-05-08T03:41:06.639Z,41.80
2023-05-08T03:42:10.238Z,41.53
2023-05-08T03:43:13.542Z,41.73
2023-05-08T03:44:18.837Z,41.68
2023-05-08T03:45:22.542Z,41.84
2023-05-08T03:46:27.330Z,41.64
2023-05-08T03:47:32.691Z,41.88
2023-05-08T03:48:37.026Z,41.58
2023-05-08T03:49:42.961Z,41.87
2023-05-08T03:50:45.705Z,41.87
2023-05-08T03:51:50.666Z,41.86
2023-05-08T03:52:55.089Z,41.72
2023-05-08T03:53:58.617Z,41.75
2023-05-08T03:55:01.497Z,41.83
2023-05-08T03:56:06.523Z,41.34
2023-05-08T03:57:11.754Z,41.63
2023-05-08T03:58:17.880Z,41.56
2023-05-08T03:59:30.762Z,41.53
2023-05-08T04:00:48.384Z,41.55
2023-05-08T04:02:02.778Z,41.70
2023-05-08T04:03:08.004Z,41.50
2023-05-08T04:04:33.590Z,41.36
2023-05-08T04:05:40.778Z,41.50
2023-05-08T04:06:54.874Z,42.09
2023-05-08T04:08:01.105Z,41.10
2023-05-08T04:09:23.809Z,41.72
2023-05-08T04:10:36.523Z,41.85
2023-05-08T04:11:44.426Z,41.74
2023-05-08T04:12:50.295Z,41.96
2023-05-08T04:13:55.926Z,41.93
2023-05-08T04:15:00.337Z,41.39
2023-05-08T04:16:10.617Z,40.97
2023-05-08T04:17:16.673Z,41.18
2023-05-08T04:18:22.010Z,40.99
2023-05-08T04:19:28.434Z,40.98
2023-05-08T04:20:32.984Z,40.97
2023-05-08T04:21:37.574Z,40.96
2023-05-08T04:22:41.737Z,40.52
2023-05-08T04:23:48.885Z,40.48
2023-05-08T04:24:54.314Z,40.77
2023-05-08T04:25:58.022Z,40.24
2023-05-08T04:27:06.449Z,40.09
2023-05-08T04:28:12.755Z,40.43
2023-05-08T04:29:18.403Z,40.60
2023-05-08T04:30:24.739Z,40.38
2023-05-08T04:31:27.875Z,40.50
2023-05-08T04:32:32.112Z,40.11
2023-05-08T04:33:36.250Z,39.84
2023-05-08T04:34:40.970Z,39.98
2023-05-08T04:35:46.534Z,40.58
2023-05-08T04:36:52.752Z,39.91
2023-05-08T04:37:57.316Z,39.53
2023-05-08T04:39:00.832Z,39.43
2023-05-08T04:40:06.722Z,39.46
2023-05-08T04:41:12.873Z,39.74
2023-05-08T04:42:17.192Z,39.58
2023-05-08T04:43:20.913Z,39.87
2023-05-08T04:44:25.562Z,38.92
2023-05-08T04:45:29.171Z,39.91
2023-05-08T04:46:32.469Z,40.02
2023-05-08T04:47:36.095Z,39.87
2023-05-08T04:48:39.079Z,39.58
2023-05-08T04:49:44.372Z,39.05
2023-05-08T04:50:48.157Z,39.21
2023-05-08T04:51:52.826Z,39.16
2023-05-08T04:52:56.839Z,38.98
2023-05-08T04:54:00.350Z,39.23
2023-05-08T04:55:03.545Z,39.19
2023-05-08T04:56:09.224Z,38.86
2023-05-08T04:57:12.859Z,39.48
2023-05-08T04:58:17.910Z,39.60
2023-05-08T04:59:21.007Z,38.89
2023-05-08T05:00:26.287Z,38.96
2023-05-08T05:01:29.942Z,38.63
2023-05-08T05:02:33.405Z,38.92
2023-05-08T05:03:37.488Z,38.24
2023-05-08T05:04:40.508Z,38.48
2023-05-08T05:05:44.011Z,38.57
2023-05-08T05:06:47.720Z,38.74
2023-05-08T05:07:50.479Z,38.80
2023-05-08T05:08:56.938Z,38.43
2023-05-08T05:10:01.099Z,38.21
2023-05-08T05:11:04.359Z,38.08
2023-05-08T05:12:10.088Z,38.35
2023-05-08T05:13:12.979Z,38.03
2023-05-08T05:14:17.525Z,38.40
2023-05-08T05:15:21.509Z,38.81
2023-05-08T05:16:26.016Z,38.83
2023-05-08T05:17:31.311Z,38.37
2023-05-08T05:18:34.003Z,38.17
2023-05-08T05:19:39.179Z,37.91
2023-05-08T05:20:44.049Z,37.90
2023-05-08T05:21:48.282Z,38.28
2023-05-08T05:22:51.901Z,38.48
2023-05-08T05:23:55.401Z,38.63
2023-05-08T05:24:58.689Z,38.42
2023-05-08T05:26:03.663Z,37.78
2023-05-08T05:27:07.386Z,37.12
2023-05-08T05:28:11.192Z,37.48
2023-05-08T05:29:16.159Z,36.95
2023-05-08T05:30:19.872Z,36.88
2023-05-08T05:31:23.419Z,36.80
2023-05-08T05:32:28.103Z,36.91
2023-05-08T05:33:30.385Z,37.15
2023-05-08T05:34:33.996Z,36.58
2023-05-08T05:35:38.233Z,36.93
2023-05-08T05:36:41.411Z,36.34
2023-05-08T05:37:44.586Z,36.43
2023-05-08T05:38:48.537Z,36.02
2023-05-08T05:39:52.360Z,35.93
2023-05-08T05:40:55.841Z,36.54
2023-05-08T05:42:00.620Z,36.52
2023-05-08T05:43:04.649Z,36.02
2023-05-08T05:44:09.047Z,35.53
2023-05-08T05:45:13.384Z,35.11
2023-05-08T05:46:17.157Z,35.12
2023-05-08T05:47:20.433Z,34.99
2023-05-08T05:48:24.153Z,34.70
2023-05-08T05:49:28.198Z,34.40
2023-05-08T05:50:31.991Z,34.14
2023-05-08T05:51:37.282Z,33.74
2023-05-08T05:52:40.786Z,33.23
2023-05-08T05:53:46.245Z,33.21
2023-05-08T05:54:49.664Z,33.80
2023-05-08T05:55:54.012Z,34.21
2023-05-08T05:56:58.328Z,33.36
2023-05-08T05:58:02.058Z,33.59
2023-05-08T05:59:05.884Z,33.24
2023-05-08T06:00:11.870Z,33.62
2023-05-08T06:01:17.942Z,33.36
2023-05-08T06:02:21.700Z,32.76
2023-05-08T06:03:25.504Z,32.36
2023-05-08T06:04:30.805Z,32.67
2023-05-08T06:05:36.532Z,32.91
2023-05-08T06:06:42.047Z,32.35
2023-05-08T06:07:45.277Z,31.79
2023-05-08T06:08:49.235Z,31.72
2023-05-08T06:09:56.012Z,30.89
2023-05-08T06:11:01.248Z,30.72
2023-05-08T06:12:04.977Z,30.66
2023-05-08T06:13:10.265Z,30.88
2023-05-08T06:14:13.743Z,30.78
2023-05-08T06:15:26.982Z,30.21
2023-05-08T06:16:33.323Z,30.71
2023-05-08T06:17:36.824Z,30.19
2023-05-08T06:18:40.190Z,29.79
2023-05-08T06:19:43.618Z,29.71
2023-05-08T06:20:50.067Z,29.44
2023-05-08T06:21:54.284Z,28.98
2023-05-08T06:22:57.674Z,28.85
2023-05-08T06:24:01.376Z,28.35
2023-05-08T06:25:07.792Z,28.05
2023-05-08T06:26:11.110Z,28.53
2023-05-08T06:27:13.699Z,28.48
2023-05-08T06:28:16.969Z,27.90
2023-05-08T06:29:20.791Z,27.93
2023-05-08T06:30:24.058Z,27.64
2023-05-08T06:31:28.034Z,28.04
2023-05-08T06:32:32.359Z,28.03
2023-05-08T06:33:35.961Z,28.31
2023-05-08T06:34:38.419Z,28.43
2023-05-08T06:35:41.881Z,27.94
2023-05-08T06:36:45.296Z,27.46
2023-05-08T06:37:48.833Z,26.99
2023-05-08T06:38:52.119Z,26.75
2023-05-08T06:40:10.264Z,27.11
2023-05-08T06:41:03.259Z,26.93
2023-05-08T06:42:08.500Z,26.85
2023-05-08T06:43:15.348Z,26.23
2023-05-08T06:44:18.943Z,25.94
2023-05-08T06:45:25.727Z,25.71
2023-05-08T06:46:30.396Z,25.74
2023-05-08T06:47:33.977Z,25.50
2023-05-08T06:48:37.252Z,24.92
2023-05-08T06:49:40.539Z,25.23
2023-05-08T06:50:44.159Z,25.46
2023-05-08T06:51:46.829Z,24.82
2023-05-08T06:52:50.221Z,24.97
2023-05-08T06:53:54.043Z,24.59
2023-05-08T06:54:59.428Z,24.15
2023-05-08T06:56:02.842Z,24.16
2023-05-08T06:57:06.964Z,25.08
2023-05-08T06:58:11.777Z,23.51
2023-05-08T06:59:16.472Z,23.22
2023-05-08T07:00:20.138Z,22.76
2023-05-08T07:01:23.535Z,22.93
2023-05-08T07:02:27.015Z,23.41
2023-05-08T07:03:30.409Z,24.40
2023-05-08T07:04:33.902Z,24.61
2023-05-08T07:05:37.321Z,23.98
2023-05-08T07:06:40.803Z,23.32
2023-05-08T07:07:43.900Z,21.93
2023-05-08T07:08:47.512Z,21.33
2023-05-08T07:09:51.012Z,21.15
2023-05-08T07:10:53.251Z,20.94
2023-05-08T07:11:58.751Z,20.74
2023-05-08T07:13:02.091Z,20.70
2023-05-08T07:14:05.763Z,19.93
2023-05-08T07:15:24.148Z,20.14
2023-05-08T07:16:16.962Z,20.06
2023-05-08T07:17:19.616Z,20.14
2023-05-08T07:18:22.861Z,20.41
2023-05-08T07:19:26.217Z,20.90
2023-05-08T07:20:29.717Z,21.13
2023-05-08T07:21:33.008Z,20.71
2023-05-08T07:22:37.236Z,20.16
2023-05-08T07:23:40.751Z,19.46
2023-05-08T07:24:44.141Z,19.08
2023-05-08T07:25:46.393Z,19.02
2023-05-08T07:26:49.698Z,19.17
2023-05-08T07:27:52.986Z,19.13
2023-05-08T07:28:56.493Z,19.26
2023-05-08T07:30:02.969Z,19.47
2023-05-08T07:31:08.116Z,20.42
2023-05-08T07:32:11.715Z,20.29
2023-05-08T07:33:15.307Z,20.24
2023-05-08T07:34:18.980Z,20.43
2023-05-08T07:35:22.655Z,19.66
2023-05-08T07:36:26.198Z,19.83
2023-05-08T07:37:31.080Z,20.00
2023-05-08T07:38:39.163Z,19.40
2023-05-08T07:39:42.510Z,19.81
2023-05-08T07:40:45.914Z,19.44
2023-05-08T07:41:50.850Z,19.21
2023-05-08T07:42:55.412Z,18.85
2023-05-08T07:44:02.299Z,19.41
2023-05-08T07:45:06.076Z,19.47
2023-05-08T07:46:12.725Z,19.75
2023-05-08T07:47:17.723Z,19.95
2023-05-08T07:48:23.128Z,20.17
2023-05-08T07:49:26.795Z,20.42
2023-05-08T07:50:30.189Z,21.12
2023-05-08T07:51:35.422Z,20.51
2023-05-08T07:52:39.825Z,21.32
2023-05-08T07:53:43.321Z,21.07
2023-05-08T07:54:47.542Z,20.78
2023-05-08T07:55:50.846Z,21.14
2023-05-08T07:56:54.457Z,21.14
2023-05-08T07:58:00.108Z,21.63
2023-05-08T07:59:04.600Z,21.59
2023-05-08T08:01:20.811Z,22.30
2023-05-08T08:02:24.351Z,22.41
2023-05-08T08:03:28.176Z,20.83
2023-05-08T08:04:32.827Z,20.55
2023-05-08T08:05:39.317Z,21.14
2023-05-08T08:06:42.495Z,21.50
2023-05-08T08:07:45.933Z,22.09
2023-05-08T08:08:54.089Z,23.78
2023-05-08T08:10:00.869Z,24.95
2023-05-08T08:11:05.513Z,23.63
2023-05-08T08:12:10.699Z,23.00
2023-05-08T08:13:14.009Z,22.81
2023-05-08T08:14:18.002Z,22.67
2023-05-08T08:15:23.406Z,21.10
2023-05-08T08:16:27.681Z,21.08
2023-05-08T08:17:31.095Z,21.97
2023-05-08T08:18:38.723Z,22.35
2023-05-08T08:19:42.120Z,21.74
2023-05-08T08:20:45.935Z,22.29
2023-05-08T08:21:52.060Z,21.41
2023-05-08T08:22:55.343Z,22.15
2023-05-08T08:24:00.871Z,21.74
2023-05-08T08:25:04.450Z,22.04
2023-05-08T08:26:07.963Z,22.05
2023-05-08T08:27:11.239Z,21.73
2023-05-08T08:28:13.911Z,22.07
2023-05-08T08:29:19.198Z,21.47
2023-05-08T08:30:22.962Z,21.94
2023-05-08T08:31:29.778Z,21.45
2023-05-08T08:32:33.280Z,21.55
2023-05-08T08:33:36.770Z,21.38
2023-05-08T08:34:40.273Z,21.76
2023-05-08T08:35:44.825Z,21.72
2023-05-08T08:36:48.635Z,21.16
2023-05-08T08:37:52.553Z,20.76
2023-05-08T08:38:55.859Z,21.59
2023-05-08T08:40:00.295Z,20.63
2023-05-08T08:41:03.924Z,21.47
2023-05-08T08:42:06.584Z,21.71
2023-05-08T08:43:09.362Z,21.67
2023-05-08T08:44:11.614Z,22.73
2023-05-08T08:45:14.961Z,21.79
2023-05-08T08:46:21.004Z,22.14
2023-05-08T08:47:25.680Z,23.02
2023-05-08T08:48:29.703Z,21.69
2023-05-08T08:49:36.119Z,21.99
2023-05-08T08:50:41.318Z,21.72
2023-05-08T08:51:46.610Z,20.89
2023-05-08T08:52:50.832Z,21.74
2023-05-08T08:53:55.994Z,23.23
2023-05-08T08:55:01.282Z,23.26
2023-05-08T08:56:07.612Z,23.93
2023-05-08T08:57:12.921Z,24.08
2023-05-08T08:58:20.876Z,24.04
2023-05-08T08:59:27.044Z,24.61
2023-05-08T09:00:32.583Z,24.51
2023-05-08T09:01:36.685Z,24.16
2023-05-08T09:02:41.550Z,23.69
2023-05-08T09:03:47.577Z,23.53
2023-05-08T09:04:50.273Z,22.62
2023-05-08T09:05:55.216Z,22.48
2023-05-08T09:06:58.996Z,22.48
2023-05-08T09:08:01.856Z,21.71
2023-05-08T09:09:05.867Z,21.46
2023-05-08T09:10:14.596Z,21.84
2023-05-08T09:11:17.885Z,21.86
2023-05-08T09:12:20.770Z,21.91
2023-05-08T09:13:24.231Z,21.97
2023-05-08T09:14:27.887Z,22.41
2023-05-08T09:15:37.961Z,22.81
2023-05-08T09:16:40.222Z,23.12
2023-05-08T09:17:43.957Z,23.18
2023-05-08T09:18:48.764Z,23.74
2023-05-08T09:19:53.119Z,23.17
2023-05-08T09:20:57.370Z,23.52
2023-05-08T09:22:01.924Z,24.38
2023-05-08T09:23:07.717Z,24.43
2023-05-08T09:24:12.258Z,24.08
2023-05-08T09:25:16.171Z,24.42
2023-05-08T09:26:32.665Z,24.90
2023-05-08T09:27:38.437Z,24.91
2023-05-08T09:28:42.151Z,24.11
2023-05-08T09:29:49.040Z,24.06
2023-05-08T09:30:53.845Z,24.32
2023-05-08T09:31:58.900Z,23.35
2023-05-08T09:33:03.145Z,24.60
2023-05-08T09:34:07.981Z,22.77
2023-05-08T09:35:12.777Z,22.74
2023-05-08T09:36:19.020Z,22.38
2023-05-08T09:37:22.413Z,22.30
2023-05-08T09:38:43.539Z,23.70
2023-05-08T09:39:48.274Z,23.39
2023-05-08T09:40:53.436Z,22.52
2023-05-08T09:41:59.539Z,23.72
2023-05-08T09:43:20.154Z,23.89
2023-05-08T09:44:23.666Z,23.40
2023-05-08T09:45:28.846Z,23.94
2023-05-08T09:46:36.037Z,23.47
2023-05-08T09:47:41.179Z,23.97
2023-05-08T09:48:46.759Z,23.96
2023-05-08T09:50:04.955Z,23.58
2023-05-08T09:51:11.128Z,23.33
2023-05-08T09:52:16.560Z,22.83
2023-05-08T09:53:22.386Z,23.05
2023-05-08T09:54:26.124Z,23.09
2023-05-08T09:55:31.168Z,23.50
2023-05-08T09:56:39.762Z,22.65
2023-05-08T09:57:53.769Z,23.27
2023-05-08T09:58:57.266Z,23.09
2023-05-08T10:00:08.739Z,22.30
2023-05-08T10:01:31.167Z,22.26
2023-05-08T10:02:36.497Z,22.95
2023-05-08T10:03:51.357Z,22.45
2023-05-08T10:04:54.859Z,22.84
2023-05-08T10:06:03.744Z,22.32
2023-05-08T10:07:09.094Z,22.31
2023-05-08T10:08:19.208Z,23.01
2023-05-08T10:09:27.395Z,23.46
2023-05-08T10:10:31.275Z,22.90
2023-05-08T10:11:34.520Z,23.51
2023-05-08T10:12:38.406Z,23.63
2023-05-08T10:13:41.565Z,23.40
2023-05-08T10:14:46.736Z,24.03
2023-05-08T10:15:52.757Z,22.68
2023-05-08T10:16:55.880Z,23.05
2023-05-08T10:18:06.647Z,23.02
2023-05-08T10:19:10.974Z,23.09
2023-05-08T10:20:15.243Z,22.49
2023-05-08T10:21:18.820Z,22.63
2023-05-08T10:22:24.120Z,23.34
2023-05-08T10:23:28.244Z,23.83
2023-05-08T10:24:35.391Z,24.40
2023-05-08T10:25:40.524Z,23.94
2023-05-08T10:26:53.830Z,23.93
2023-05-08T10:27:59.594Z,24.61
2023-05-08T10:29:06.040Z,24.35
2023-05-08T10:30:11.649Z,24.64
2023-05-08T10:31:16.818Z,24.97
2023-05-08T10:32:24.313Z,25.60
2023-05-08T10:33:32.559Z,26.17
2023-05-08T10:34:37.021Z,25.74
2023-05-08T10:35:42.441Z,25.23
2023-05-08T10:36:49.273Z,25.41
2023-05-08T10:37:53.182Z,25.05
2023-05-08T10:38:57.305Z,24.79
2023-05-08T10:40:02.303Z,25.24
2023-05-08T10:41:06.760Z,24.92
2023-05-08T10:42:09.181Z,24.78
2023-05-08T10:43:12.786Z,25.29
2023-05-08T10:44:17.258Z,25.37
2023-05-08T10:45:20.109Z,25.09
2023-05-08T10:46:26.898Z,24.63
2023-05-08T10:47:51.090Z,25.18
2023-05-08T10:48:58.150Z,24.63
2023-05-08T10:50:03.482Z,25.22
2023-05-08T10:51:07.503Z,25.21
2023-05-08T10:52:20.833Z,25.04
2023-05-08T10:53:28.933Z,25.09
2023-05-08T10:54:36.723Z,25.28
2023-05-08T10:55:40.853Z,25.06
2023-05-08T10:56:44.254Z,25.41
2023-05-08T10:58:07.608Z,24.79
2023-05-08T10:59:14.033Z,24.91
2023-05-08T11:00:17.841Z,24.44
2023-05-08T11:01:23.136Z,24.53
2023-05-08T11:02:29.178Z,24.35
2023-05-08T11:03:33.233Z,24.47
2023-05-08T11:04:37.395Z,24.87
2023-05-08T11:05:48.794Z,24.61
2023-05-08T11:06:53.632Z,24.55
2023-05-08T11:08:00.465Z,24.76
2023-05-08T11:09:04.426Z,24.54
2023-05-08T11:10:11.092Z,24.27
2023-05-08T11:11:23.757Z,24.73
2023-05-08T11:12:28.591Z,25.79
2023-05-08T11:13:35.091Z,25.70
2023-05-08T11:14:40.290Z,25.09
2023-05-08T11:15:46.057Z,24.89
2023-05-08T11:16:57.325Z,25.03
2023-05-08T11:18:04.824Z,25.26
2023-05-08T11:19:18.223Z,24.59
2023-05-08T11:20:23.217Z,24.71
2023-05-08T11:21:30.510Z,24.46
2023-05-08T11:22:35.213Z,24.23
2023-05-08T11:23:38.826Z,24.43
2023-05-08T11:24:49.533Z,24.79
2023-05-08T11:26:13.013Z,25.01
2023-05-08T11:27:15.981Z,24.48
2023-05-08T11:28:19.580Z,24.85
2023-05-08T11:29:22.564Z,24.62
2023-05-08T11:30:38.203Z,24.77
2023-05-08T11:31:56.895Z,24.40
2023-05-08T11:33:06.992Z,24.33
2023-05-08T11:34:12.613Z,24.09
2023-05-08T11:35:17.892Z,24.90
2023-05-08T11:36:26.126Z,25.49
2023-05-08T11:37:31.376Z,25.16
2023-05-08T11:38:36.640Z,24.94
2023-05-08T11:39:40.037Z,25.14
2023-05-08T11:40:57.238Z,25.61
2023-05-08T11:42:19.227Z,25.68
2023-05-08T11:44:43.753Z,25.91
2023-05-08T11:45:48.500Z,26.20
2023-05-08T11:46:56.533Z,26.44
2023-05-08T11:48:03.019Z,25.98
2023-05-08T11:49:07.420Z,25.52
2023-05-08T11:50:11.820Z,25.64
2023-05-08T11:51:17.462Z,25.56
2023-05-08T11:52:21.177Z,25.78
2023-05-08T11:53:24.037Z,25.83
2023-05-08T11:54:28.292Z,25.66
2023-05-08T11:55:31.595Z,25.59
2023-05-08T11:56:36.350Z,25.13
2023-05-08T11:57:40.843Z,25.68
2023-05-08T11:58:44.820Z,25.87
2023-05-08T11:59:50.937Z,25.33
2023-05-08T12:00:57.835Z,25.38
2023-05-08T12:02:08.725Z,25.73
2023-05-08T12:03:08.205Z,25.74
2023-05-08T12:04:14.058Z,26.00
2023-05-08T12:05:19.429Z,26.08
2023-05-08T12:06:24.380Z,25.73
2023-05-08T12:07:30.196Z,26.37
2023-05-08T12:08:39.496Z,25.96
2023-05-08T12:09:43.474Z,25.57
2023-05-08T12:10:49.748Z,26.54
2023-05-08T12:11:54.971Z,26.18
2023-05-08T12:12:58.516Z,26.29
2023-05-08T12:14:01.045Z,26.96
2023-05-08T12:15:07.470Z,26.37
2023-05-08T12:16:11.187Z,25.75
2023-05-08T12:17:15.919Z,25.97
2023-05-08T12:18:20.696Z,26.38
2023-05-08T12:19:24.223Z,26.34
2023-05-08T12:20:32.048Z,25.89
2023-05-08T12:21:35.608Z,25.69
2023-05-08T12:22:39.793Z,25.34
2023-05-08T12:23:45.911Z,25.72
2023-05-08T12:24:49.253Z,25.20
2023-05-08T12:25:56.027Z,24.44
2023-05-08T12:27:02.397Z,25.29
2023-05-08T12:28:09.484Z,24.63
2023-05-08T12:29:12.570Z,25.21
2023-05-08T12:30:15.901Z,25.05
2023-05-08T12:31:20.699Z,25.46
2023-05-08T12:32:24.620Z,24.82
2023-05-08T12:33:28.998Z,25.38
2023-05-08T12:34:31.974Z,25.70
2023-05-08T12:35:35.464Z,26.75
2023-05-08T12:36:37.943Z,26.00
2023-05-08T12:37:42.161Z,25.76
2023-05-08T12:38:46.413Z,26.45
2023-05-08T12:39:50.024Z,26.12
2023-05-08T12:40:55.333Z,26.36
2023-05-08T12:42:00.694Z,26.12
2023-05-08T12:43:04.861Z,25.77
2023-05-08T12:44:18.230Z,26.23
2023-05-08T12:45:22.902Z,26.22
2023-05-08T12:46:29.001Z,25.95
2023-05-08T12:47:32.654Z,26.04
2023-05-08T12:48:36.869Z,25.83
2023-05-08T12:49:39.638Z,25.67
2023-05-08T12:50:44.660Z,25.56
2023-05-08T12:51:48.203Z,25.06
2023-05-08T12:52:52.226Z,25.41
2023-05-08T12:53:54.900Z,25.48
2023-05-08T12:54:58.201Z,25.64
2023-05-08T12:56:03.475Z,25.10
2023-05-08T12:57:10.729Z,25.09
2023-05-08T12:58:15.518Z,25.31
2023-05-08T12:59:21.312Z,25.37
2023-05-08T13:00:29.401Z,25.55
2023-05-08T13:01:32.340Z,25.39
2023-05-08T13:02:41.651Z,24.81
2023-05-08T13:04:56.926Z,25.03
2023-05-08T13:06:02.402Z,25.46
2023-05-08T13:07:06.609Z,25.68
2023-05-08T13:08:13.933Z,25.49
2023-05-08T13:09:21.102Z,25.89
2023-05-08T13:10:26.066Z,26.20
2023-05-08T13:11:33.443Z,26.25
2023-05-08T13:12:36.801Z,25.88
2023-05-08T13:13:40.192Z,25.19
2023-05-08T13:14:44.852Z,25.88
2023-05-08T13:15:49.323Z,25.85
2023-05-08T13:16:55.805Z,25.52
2023-05-08T13:18:19.072Z,26.23
2023-05-08T13:19:22.684Z,25.64
2023-05-08T13:20:28.908Z,25.51
2023-05-08T13:21:31.886Z,25.91
2023-05-08T13:22:38.318Z,25.94
2023-05-08T13:23:42.450Z,24.97
2023-05-08T13:24:50.128Z,25.39
2023-05-08T13:25:53.534Z,24.83
2023-05-08T13:26:58.160Z,24.69
2023-05-08T13:28:02.108Z,24.95
2023-05-08T13:29:05.512Z,24.82
2023-05-08T13:30:11.701Z,24.80
2023-05-08T13:31:14.096Z,24.10
2023-05-08T13:32:17.486Z,24.28
2023-05-08T13:33:20.048Z,24.41
2023-05-08T13:34:23.556Z,24.01
2023-05-08T13:35:28.858Z,24.31
2023-05-08T13:36:32.563Z,24.92
2023-05-08T13:37:38.662Z,24.70
2023-05-08T13:38:45.348Z,24.86
2023-05-08T13:39:49.223Z,24.86
2023-05-08T13:40:55.617Z,25.20
2023-05-08T13:41:58.951Z,25.17
2023-05-08T13:43:02.369Z,25.42
2023-05-08T13:44:05.747Z,25.58
2023-05-08T13:45:12.508Z,25.21
2023-05-08T13:46:16.061Z,25.10
2023-05-08T13:47:19.389Z,25.12
2023-05-08T13:48:22.701Z,25.45
2023-05-08T13:49:28.396Z,24.84
2023-05-08T13:50:31.900Z,24.73
2023-05-08T13:51:34.381Z,24.81
2023-05-08T13:52:38.314Z,24.99
2023-05-08T13:53:41.896Z,24.82
2023-05-08T13:54:47.700Z,25.05
2023-05-08T13:55:51.115Z,24.86
2023-05-08T13:56:54.818Z,25.05
2023-05-08T13:57:59.475Z,25.18
2023-05-08T13:59:06.389Z,24.68
2023-05-08T14:00:10.262Z,24.65
2023-05-08T14:01:25.976Z,24.60
2023-05-08T14:02:18.251Z,24.83
2023-05-08T14:03:22.364Z,24.70
2023-05-08T14:04:26.974Z,24.65
2023-05-08T14:05:30.572Z,25.30
2023-05-08T14:06:35.450Z,24.92
2023-05-08T14:07:44.473Z,24.97
2023-05-08T14:08:50.442Z,24.43
2023-05-08T14:09:53.626Z,25.24